sensor_id;sensor_type;location;lat;lon;timestamp;pressure;altitude;pressure_sealevel;temperature;humidity
21863;BME280;11096;51.338;12.524;2023-04-26T00:00:09;100090.00;;;4.67;82.15
21863;BME280;11096;51.338;12.524;2023-04-26T00:02:35;100094.38;;;4.65;82.31
21863;BME280;11096;51.338;12.524;2023-04-26T00:05:01;100092.56;;;4.67;82.80
21863;BME280;11096;51.338;12.524;2023-04-26T00:07:28;100095.00;;;4.70;83.08
21863;BME280;11096;51.338;12.524;2023-04-26T00:09:54;100098.34;;;4.72;82.51
21863;BME280;11096;51.338;12.524;2023-04-26T00:12:20;100093.63;;;4.63;83.14
21863;BME280;11096;51.338;12.524;2023-04-26T00:14:46;100094.25;;;4.68;83.49
21863;BME280;11096;51.338;12.524;2023-04-26T00:17:11;100095.28;;;4.64;83.83
21863;BME280;11096;51.338;12.524;2023-04-26T00:19:37;100092.34;;;4.52;83.99
21863;BME280;11096;51.338;12.524;2023-04-26T00:22:03;100090.41;;;4.58;84.32
21863;BME280;11096;51.338;12.524;2023-04-26T00:24:30;100097.09;;;4.62;84.09
21863;BME280;11096;51.338;12.524;2023-04-26T00:26:56;100094.66;;;4.59;84.07
21863;BME280;11096;51.338;12.524;2023-04-26T00:29:21;100097.91;;;4.62;84.39
21863;BME280;11096;51.338;12.524;2023-04-26T00:31:47;100091.94;;;4.62;84.25
21863;BME280;11096;51.338;12.524;2023-04-26T00:34:12;100100.56;;;4.61;84.12
21863;BME280;11096;51.338;12.524;2023-04-26T00:36:38;100094.66;;;4.59;84.42
21863;BME280;11096;51.338;12.524;2023-04-26T00:39:03;100097.56;;;4.70;84.05
21863;BME280;11096;51.338;12.524;2023-04-26T00:41:29;100093.19;;;4.72;83.52
21863;BME280;11096;51.338;12.524;2023-04-26T00:43:54;100093.63;;;4.63;83.19
21863;BME280;11096;51.338;12.524;2023-04-26T00:46:20;100100.50;;;4.81;82.92
21863;BME280;11096;51.338;12.524;2023-04-26T00:48:47;100101.88;;;4.69;82.10
21863;BME280;11096;51.338;12.524;2023-04-26T00:51:13;100098.28;;;4.73;82.28
21863;BME280;11096;51.338;12.524;2023-04-26T00:53:38;100096.31;;;4.79;81.85
21863;BME280;11096;51.338;12.524;2023-04-26T00:56:06;100102.50;;;4.74;81.33
21863;BME280;11096;51.338;12.524;2023-04-26T00:58:33;100100.28;;;4.86;81.46
21863;BME280;11096;51.338;12.524;2023-04-26T01:00:58;100099.56;;;4.82;80.94
21863;BME280;11096;51.338;12.524;2023-04-26T01:03:24;100106.47;;;4.82;81.03
21863;BME280;11096;51.338;12.524;2023-04-26T01:05:51;100111.34;;;4.88;80.68
21863;BME280;11096;51.338;12.524;2023-04-26T01:08:16;100118.38;;;4.84;80.51
21863;BME280;11096;51.338;12.524;2023-04-26T01:10:46;100116.63;;;4.85;80.77
21863;BME280;11096;51.338;12.524;2023-04-26T01:13:12;100120.19;;;4.82;79.93
21863;BME280;11096;51.338;12.524;2023-04-26T01:15:44;100123.81;;;4.78;80.32
21863;BME280;11096;51.338;12.524;2023-04-26T01:18:10;100121.38;;;4.75;80.20
21863;BME280;11096;51.338;12.524;2023-04-26T01:20:35;100118.03;;;4.73;79.53
21863;BME280;11096;51.338;12.524;2023-04-26T01:23:01;100126.94;;;4.66;79.45
21863;BME280;11096;51.338;12.524;2023-04-26T01:25:27;100124.38;;;4.66;79.49
21863;BME280;11096;51.338;12.524;2023-04-26T01:27:52;100123.75;;;4.61;79.27
21863;BME280;11096;51.338;12.524;2023-04-26T01:30:18;100120.75;;;4.51;79.54
21863;BME280;11096;51.338;12.524;2023-04-26T01:32:43;100127.50;;;4.33;79.77
21863;BME280;11096;51.338;12.524;2023-04-26T01:35:09;100124.88;;;4.35;79.82
21863;BME280;11096;51.338;12.524;2023-04-26T01:37:34;100122.13;;;4.19;80.25
21863;BME280;11096;51.338;12.524;2023-04-26T01:39:59;100124.81;;;4.16;81.06
21863;BME280;11096;51.338;12.524;2023-04-26T01:42:25;100120.59;;;4.15;81.01
21863;BME280;11096;51.338;12.524;2023-04-26T01:44:50;100124.78;;;3.97;81.94
21863;BME280;11096;51.338;12.524;2023-04-26T01:47:16;100127.28;;;3.98;82.07
21863;BME280;11096;51.338;12.524;2023-04-26T01:49:41;100132.69;;;3.92;82.63
21863;BME280;11096;51.338;12.524;2023-04-26T01:52:07;100134.22;;;3.96;82.64
21863;BME280;11096;51.338;12.524;2023-04-26T01:54:32;100128.75;;;3.83;83.06
21863;BME280;11096;51.338;12.524;2023-04-26T01:56:58;100129.78;;;3.79;84.02
21863;BME280;11096;51.338;12.524;2023-04-26T01:59:23;100132.28;;;3.81;84.09
21863;BME280;11096;51.338;12.524;2023-04-26T02:01:48;100134.22;;;3.76;84.42
21863;BME280;11096;51.338;12.524;2023-04-26T02:04:14;100135.13;;;3.75;84.83
21863;BME280;11096;51.338;12.524;2023-04-26T02:06:39;100131.75;;;3.73;85.77
21863;BME280;11096;51.338;12.524;2023-04-26T02:09:06;100128.94;;;3.79;85.68
21863;BME280;11096;51.338;12.524;2023-04-26T02:11:34;100129.50;;;3.65;85.98
21863;BME280;11096;51.338;12.524;2023-04-26T02:13:59;100138.22;;;3.61;86.89
21863;BME280;11096;51.338;12.524;2023-04-26T02:16:25;100139.31;;;3.55;87.43
21863;BME280;11096;51.338;12.524;2023-04-26T02:18:51;100138.19;;;3.62;87.82
21863;BME280;11096;51.338;12.524;2023-04-26T02:21:18;100141.13;;;3.53;88.13
21863;BME280;11096;51.338;12.524;2023-04-26T02:23:43;100136.41;;;3.42;88.62
21863;BME280;11096;51.338;12.524;2023-04-26T02:26:09;100131.44;;;3.38;89.41
21863;BME280;11096;51.338;12.524;2023-04-26T02:28:36;100138.84;;;3.23;89.60
21863;BME280;11096;51.338;12.524;2023-04-26T02:31:02;100132.06;;;3.22;90.76
21863;BME280;11096;51.338;12.524;2023-04-26T02:33:27;100130.78;;;3.11;91.64
21863;BME280;11096;51.338;12.524;2023-04-26T02:35:53;100133.59;;;3.27;91.34
21863;BME280;11096;51.338;12.524;2023-04-26T02:38:18;100128.59;;;3.23;91.50
21863;BME280;11096;51.338;12.524;2023-04-26T02:40:44;100133.94;;;3.17;91.65
21863;BME280;11096;51.338;12.524;2023-04-26T02:43:10;100134.41;;;3.27;91.46
21863;BME280;11096;51.338;12.524;2023-04-26T02:45:41;100131.69;;;3.32;91.54
21863;BME280;11096;51.338;12.524;2023-04-26T02:48:07;100135.97;;;3.31;91.46
21863;BME280;11096;51.338;12.524;2023-04-26T02:50:32;100133.47;;;3.30;91.45
21863;BME280;11096;51.338;12.524;2023-04-26T02:52:58;100132.63;;;3.29;91.76
21863;BME280;11096;51.338;12.524;2023-04-26T02:55:23;100134.31;;;3.30;91.55
21863;BME280;11096;51.338;12.524;2023-04-26T02:57:48;100132.75;;;3.26;91.61
21863;BME280;11096;51.338;12.524;2023-04-26T03:00:14;100137.06;;;3.26;92.21
21863;BME280;11096;51.338;12.524;2023-04-26T03:02:40;100140.75;;;3.18;92.14
21863;BME280;11096;51.338;12.524;2023-04-26T03:05:05;100139.84;;;3.19;92.92
21863;BME280;11096;51.338;12.524;2023-04-26T03:07:31;100141.06;;;3.11;93.24
21863;BME280;11096;51.338;12.524;2023-04-26T03:09:57;100142.84;;;3.09;93.92
21863;BME280;11096;51.338;12.524;2023-04-26T03:12:22;100136.81;;;3.10;93.89
21863;BME280;11096;51.338;12.524;2023-04-26T03:14:48;100140.31;;;3.07;93.77
21863;BME280;11096;51.338;12.524;2023-04-26T03:17:13;100136.06;;;2.84;94.94
21863;BME280;11096;51.338;12.524;2023-04-26T03:19:39;100137.06;;;2.80;94.92
21863;BME280;11096;51.338;12.524;2023-04-26T03:22:04;100138.59;;;2.86;95.27
21863;BME280;11096;51.338;12.524;2023-04-26T03:24:29;100140.13;;;2.90;95.86
21863;BME280;11096;51.338;12.524;2023-04-26T03:26:55;100137.56;;;2.90;95.24
21863;BME280;11096;51.338;12.524;2023-04-26T03:29:22;100148.72;;;2.89;95.05
21863;BME280;11096;51.338;12.524;2023-04-26T03:31:47;100142.44;;;2.74;95.77
21863;BME280;11096;51.338;12.524;2023-04-26T03:34:12;100144.53;;;2.63;96.01
21863;BME280;11096;51.338;12.524;2023-04-26T03:36:38;100149.41;;;2.70;96.71
21863;BME280;11096;51.338;12.524;2023-04-26T03:39:04;100145.03;;;2.72;96.79
21863;BME280;11096;51.338;12.524;2023-04-26T03:41:30;100152.03;;;2.69;97.12
21863;BME280;11096;51.338;12.524;2023-04-26T03:43:57;100148.72;;;2.65;97.08
21863;BME280;11096;51.338;12.524;2023-04-26T03:46:22;100153.50;;;2.51;97.00
21863;BME280;11096;51.338;12.524;2023-04-26T03:48:48;100149.94;;;2.55;97.30
21863;BME280;11096;51.338;12.524;2023-04-26T03:51:13;100152.31;;;2.61;97.74
21863;BME280;11096;51.338;12.524;2023-04-26T03:53:39;100151.53;;;2.59;97.80
21863;BME280;11096;51.338;12.524;2023-04-26T03:56:05;100149.56;;;2.42;97.68
21863;BME280;11096;51.338;12.524;2023-04-26T03:58:31;100148.19;;;2.57;97.42
21863;BME280;11096;51.338;12.524;2023-04-26T04:00:57;100149.66;;;2.63;97.33
21863;BME280;11096;51.338;12.524;2023-04-26T04:03:22;100151.44;;;2.61;97.35
21863;BME280;11096;51.338;12.524;2023-04-26T04:05:48;100147.91;;;2.65;96.93
21863;BME280;11096;51.338;12.524;2023-04-26T04:08:13;100157.66;;;2.55;96.85
21863;BME280;11096;51.338;12.524;2023-04-26T04:10:40;100148.00;;;2.62;96.78
21863;BME280;11096;51.338;12.524;2023-04-26T04:13:06;100152.63;;;2.52;96.53
21863;BME280;11096;51.338;12.524;2023-04-26T04:15:32;100156.78;;;2.56;97.23
21863;BME280;11096;51.338;12.524;2023-04-26T04:17:57;100157.31;;;2.64;97.23
21863;BME280;11096;51.338;12.524;2023-04-26T04:20:23;100159.38;;;2.54;96.55
21863;BME280;11096;51.338;12.524;2023-04-26T04:22:48;100164.91;;;2.67;96.78
21863;BME280;11096;51.338;12.524;2023-04-26T04:25:13;100170.28;;;2.61;96.45
21863;BME280;11096;51.338;12.524;2023-04-26T04:27:39;100172.56;;;2.69;96.40
21863;BME280;11096;51.338;12.524;2023-04-26T04:30:07;100167.63;;;2.63;96.05
21863;BME280;11096;51.338;12.524;2023-04-26T04:32:33;100164.59;;;2.76;95.58
21863;BME280;11096;51.338;12.524;2023-04-26T04:34:59;100168.03;;;2.75;94.93
21863;BME280;11096;51.338;12.524;2023-04-26T04:37:25;100180.66;;;2.82;94.92
21863;BME280;11096;51.338;12.524;2023-04-26T04:39:51;100171.84;;;2.89;94.70
21863;BME280;11096;51.338;12.524;2023-04-26T04:42:17;100179.53;;;2.89;94.38
21863;BME280;11096;51.338;12.524;2023-04-26T04:44:43;100181.78;;;2.98;94.32
21863;BME280;11096;51.338;12.524;2023-04-26T04:47:10;100189.28;;;3.03;93.77
21863;BME280;11096;51.338;12.524;2023-04-26T04:49:36;100192.16;;;3.17;92.67
21863;BME280;11096;51.338;12.524;2023-04-26T04:52:01;100183.69;;;3.15;91.47
21863;BME280;11096;51.338;12.524;2023-04-26T04:54:27;100189.84;;;3.11;90.46
21863;BME280;11096;51.338;12.524;2023-04-26T04:56:52;100192.84;;;3.22;90.43
21863;BME280;11096;51.338;12.524;2023-04-26T04:59:17;100196.50;;;3.38;89.53
21863;BME280;11096;51.338;12.524;2023-04-26T05:01:43;100201.03;;;3.32;89.23
21863;BME280;11096;51.338;12.524;2023-04-26T05:04:08;100198.72;;;3.48;88.53
21863;BME280;11096;51.338;12.524;2023-04-26T05:06:34;100199.69;;;3.67;87.67
21863;BME280;11096;51.338;12.524;2023-04-26T05:08:59;100212.75;;;3.61;86.72
21863;BME280;11096;51.338;12.524;2023-04-26T05:11:25;100214.16;;;3.70;86.96
21863;BME280;11096;51.338;12.524;2023-04-26T05:13:51;100207.56;;;3.62;86.45
21863;BME280;11096;51.338;12.524;2023-04-26T05:16:16;100202.25;;;3.67;86.52
21863;BME280;11096;51.338;12.524;2023-04-26T05:18:42;100200.97;;;3.77;86.29
21863;BME280;11096;51.338;12.524;2023-04-26T05:21:07;100205.06;;;4.03;84.85
21863;BME280;11096;51.338;12.524;2023-04-26T05:23:33;100203.03;;;4.12;83.48
21863;BME280;11096;51.338;12.524;2023-04-26T05:26:05;100197.28;;;4.25;83.03
21863;BME280;11096;51.338;12.524;2023-04-26T05:28:31;100206.50;;;4.31;82.16
21863;BME280;11096;51.338;12.524;2023-04-26T05:30:57;100204.69;;;4.33;80.96
21863;BME280;11096;51.338;12.524;2023-04-26T05:33:23;100211.88;;;4.45;80.63
21863;BME280;11096;51.338;12.524;2023-04-26T05:35:49;100209.19;;;4.48;79.71
21863;BME280;11096;51.338;12.524;2023-04-26T05:38:15;100205.19;;;4.62;79.12
21863;BME280;11096;51.338;12.524;2023-04-26T05:40:40;100210.91;;;4.68;78.28
21863;BME280;11096;51.338;12.524;2023-04-26T05:43:06;100216.03;;;4.89;77.50
21863;BME280;11096;51.338;12.524;2023-04-26T05:45:31;100217.91;;;4.85;77.30
21863;BME280;11096;51.338;12.524;2023-04-26T05:47:57;100215.41;;;5.03;76.92
21863;BME280;11096;51.338;12.524;2023-04-26T05:50:22;100215.41;;;5.22;75.57
21863;BME280;11096;51.338;12.524;2023-04-26T05:52:47;100222.38;;;5.20;75.92
21863;BME280;11096;51.338;12.524;2023-04-26T05:55:13;100216.06;;;5.27;75.08
21863;BME280;11096;51.338;12.524;2023-04-26T05:57:38;100224.53;;;5.48;73.99
21863;BME280;11096;51.338;12.524;2023-04-26T06:00:04;100227.41;;;5.42;73.12
21863;BME280;11096;51.338;12.524;2023-04-26T06:02:30;100225.34;;;5.67;72.94
21863;BME280;11096;51.338;12.524;2023-04-26T06:04:56;100220.91;;;5.52;72.28
21863;BME280;11096;51.338;12.524;2023-04-26T06:07:21;100223.94;;;5.60;72.69
21863;BME280;11096;51.338;12.524;2023-04-26T06:09:47;100215.47;;;5.75;71.34
21863;BME280;11096;51.338;12.524;2023-04-26T06:12:12;100218.94;;;5.93;70.88
21863;BME280;11096;51.338;12.524;2023-04-26T06:14:38;100217.91;;;6.15;69.01
21863;BME280;11096;51.338;12.524;2023-04-26T06:17:03;100222.22;;;6.14;67.97
21863;BME280;11096;51.338;12.524;2023-04-26T06:19:29;100230.56;;;6.19;68.44
21863;BME280;11096;51.338;12.524;2023-04-26T06:21:54;100228.53;;;5.72;69.18
21863;BME280;11096;51.338;12.524;2023-04-26T06:24:22;100222.84;;;6.02;68.59
21863;BME280;11096;51.338;12.524;2023-04-26T06:26:47;100219.31;;;6.73;67.67
21863;BME280;11096;51.338;12.524;2023-04-26T06:29:13;100221.34;;;6.66;66.40
21863;BME280;11096;51.338;12.524;2023-04-26T06:31:38;100216.84;;;7.03;66.66
21863;BME280;11096;51.338;12.524;2023-04-26T06:34:03;100226.53;;;6.99;66.25
21863;BME280;11096;51.338;12.524;2023-04-26T06:36:29;100230.13;;;6.97;65.97
21863;BME280;11096;51.338;12.524;2023-04-26T06:38:55;100225.91;;;7.43;64.85
21863;BME280;11096;51.338;12.524;2023-04-26T06:41:20;100233.81;;;7.56;64.43
21863;BME280;11096;51.338;12.524;2023-04-26T06:43:47;100221.97;;;7.36;63.51
21863;BME280;11096;51.338;12.524;2023-04-26T06:46:12;100233.88;;;7.07;63.95
21863;BME280;11096;51.338;12.524;2023-04-26T06:48:38;100228.03;;;7.83;62.93
21863;BME280;11096;51.338;12.524;2023-04-26T06:51:05;100231.72;;;8.84;60.58
21863;BME280;11096;51.338;12.524;2023-04-26T06:53:31;100239.91;;;8.76;58.74
21863;BME280;11096;51.338;12.524;2023-04-26T06:55:57;100226.59;;;8.23;59.55
21863;BME280;11096;51.338;12.524;2023-04-26T06:58:23;100240.06;;;7.52;61.36
21863;BME280;11096;51.338;12.524;2023-04-26T07:00:48;100236.38;;;7.88;61.54
21863;BME280;11096;51.338;12.524;2023-04-26T07:03:14;100240.69;;;8.03;61.39
21863;BME280;11096;51.338;12.524;2023-04-26T07:05:40;100237.28;;;7.87;61.22
21863;BME280;11096;51.338;12.524;2023-04-26T07:08:05;100243.78;;;8.40;60.68
21863;BME280;11096;51.338;12.524;2023-04-26T07:10:31;100236.03;;;8.54;59.92
21863;BME280;11096;51.338;12.524;2023-04-26T07:12:56;100248.69;;;8.45;59.58
21863;BME280;11096;51.338;12.524;2023-04-26T07:15:22;100239.53;;;8.53;58.98
21863;BME280;11096;51.338;12.524;2023-04-26T07:17:47;100235.81;;;9.43;57.85
21863;BME280;11096;51.338;12.524;2023-04-26T07:20:12;100233.91;;;9.04;57.72
21863;BME280;11096;51.338;12.524;2023-04-26T07:22:44;100233.53;;;8.67;57.92
21863;BME280;11096;51.338;12.524;2023-04-26T07:25:09;100233.81;;;8.02;57.94
21863;BME280;11096;51.338;12.524;2023-04-26T07:27:35;100239.06;;;8.47;57.78
21863;BME280;11096;51.338;12.524;2023-04-26T07:30:00;100232.41;;;9.29;56.55
21863;BME280;11096;51.338;12.524;2023-04-26T07:32:26;100225.19;;;9.88;55.55
21863;BME280;11096;51.338;12.524;2023-04-26T07:34:51;100218.06;;;12.62;51.47
21863;BME280;11096;51.338;12.524;2023-04-26T07:37:16;100210.56;;;10.78;49.82
21863;BME280;11096;51.338;12.524;2023-04-26T07:39:42;100226.13;;;9.18;52.73
21863;BME280;11096;51.338;12.524;2023-04-26T07:42:07;100228.28;;;9.80;54.22
21863;BME280;11096;51.338;12.524;2023-04-26T07:44:33;100231.28;;;10.14;52.41
21863;BME280;11096;51.338;12.524;2023-04-26T07:46:58;100224.31;;;10.02;51.83
21863;BME280;11096;51.338;12.524;2023-04-26T07:49:23;100233.22;;;10.50;51.69
21863;BME280;11096;51.338;12.524;2023-04-26T07:51:49;100227.41;;;10.47;51.38
21863;BME280;11096;51.338;12.524;2023-04-26T07:54:16;100233.91;;;9.04;51.34
21863;BME280;11096;51.338;12.524;2023-04-26T07:56:41;100244.16;;;8.48;53.19
21863;BME280;11096;51.338;12.524;2023-04-26T07:59:06;100234.25;;;9.27;53.66
21863;BME280;11096;51.338;12.524;2023-04-26T08:01:32;100227.72;;;10.02;52.81
21863;BME280;11096;51.338;12.524;2023-04-26T08:03:58;100235.28;;;10.45;51.65
21863;BME280;11096;51.338;12.524;2023-04-26T08:06:23;100236.25;;;10.44;52.41
21863;BME280;11096;51.338;12.524;2023-04-26T08:08:49;100240.09;;;9.84;52.21
21863;BME280;11096;51.338;12.524;2023-04-26T08:11:15;100242.41;;;9.62;52.97
21863;BME280;11096;51.338;12.524;2023-04-26T08:13:41;100245.34;;;9.43;52.07
21863;BME280;11096;51.338;12.524;2023-04-26T08:16:08;100249.25;;;9.36;54.32
21863;BME280;11096;51.338;12.524;2023-04-26T08:18:33;100255.94;;;8.82;54.88
21863;BME280;11096;51.338;12.524;2023-04-26T08:20:59;100245.94;;;9.05;55.06
21863;BME280;11096;51.338;12.524;2023-04-26T08:23:25;100251.53;;;9.82;53.71
21863;BME280;11096;51.338;12.524;2023-04-26T08:25:50;100251.28;;;9.99;53.65
21863;BME280;11096;51.338;12.524;2023-04-26T08:28:16;100245.59;;;10.07;52.70
21863;BME280;11096;51.338;12.524;2023-04-26T08:30:41;100249.28;;;9.90;54.04
21863;BME280;11096;51.338;12.524;2023-04-26T08:33:08;100245.69;;;10.32;52.82
21863;BME280;11096;51.338;12.524;2023-04-26T08:35:34;100238.22;;;10.66;51.56
21863;BME280;11096;51.338;12.524;2023-04-26T08:37:59;100231.13;;;10.94;49.79
21863;BME280;11096;51.338;12.524;2023-04-26T08:40:25;100238.59;;;11.11;50.25
21863;BME280;11096;51.338;12.524;2023-04-26T08:42:51;100239.56;;;10.46;48.69
21863;BME280;11096;51.338;12.524;2023-04-26T08:45:19;100241.00;;;9.98;50.27
21863;BME280;11096;51.338;12.524;2023-04-26T08:47:50;100249.47;;;9.04;52.33
21863;BME280;11096;51.338;12.524;2023-04-26T08:50:19;100260.16;;;8.55;54.16
21863;BME280;11096;51.338;12.524;2023-04-26T08:52:47;100252.94;;;8.46;53.75
21863;BME280;11096;51.338;12.524;2023-04-26T08:55:15;100250.72;;;8.40;53.46
21863;BME280;11096;51.338;12.524;2023-04-26T08:57:42;100255.31;;;9.49;52.85
21863;BME280;11096;51.338;12.524;2023-04-26T09:00:10;100240.69;;;10.68;51.68
21863;BME280;11096;51.338;12.524;2023-04-26T09:02:39;100233.69;;;11.56;49.23
21863;BME280;11096;51.338;12.524;2023-04-26T09:05:08;100243.03;;;11.59;47.90
21863;BME280;11096;51.338;12.524;2023-04-26T09:07:46;100241.97;;;10.88;48.18
21863;BME280;11096;51.338;12.524;2023-04-26T09:10:15;100230.44;;;10.14;47.59
21863;BME280;11096;51.338;12.524;2023-04-26T09:12:43;100249.00;;;9.67;49.29
21863;BME280;11096;51.338;12.524;2023-04-26T09:15:09;100236.28;;;10.17;48.27
21863;BME280;11096;51.338;12.524;2023-04-26T09:17:38;100231.75;;;10.85;47.11
21863;BME280;11096;51.338;12.524;2023-04-26T09:20:29;100247.06;;;10.51;48.20
21863;BME280;11096;51.338;12.524;2023-04-26T09:23:05;100245.97;;;11.05;47.98
21863;BME280;11096;51.338;12.524;2023-04-26T09:25:32;100243.25;;;10.17;48.63
21863;BME280;11096;51.338;12.524;2023-04-26T09:27:58;100247.00;;;9.44;49.34
21863;BME280;11096;51.338;12.524;2023-04-26T09:30:24;100255.81;;;9.41;48.55
21863;BME280;11096;51.338;12.524;2023-04-26T09:35:33;100249.03;;;9.53;51.56
21863;BME280;11096;51.338;12.524;2023-04-26T09:38:08;100246.19;;;9.71;54.64
21863;BME280;11096;51.338;12.524;2023-04-26T09:40:45;100251.06;;;9.62;57.63
21863;BME280;11096;51.338;12.524;2023-04-26T09:43:18;100253.69;;;10.42;57.08
21863;BME280;11096;51.338;12.524;2023-04-26T09:45:55;100247.78;;;10.66;57.12
21863;BME280;11096;51.338;12.524;2023-04-26T09:48:32;100244.22;;;11.55;53.28
21863;BME280;11096;51.338;12.524;2023-04-26T09:51:08;100240.41;;;11.96;50.02
21863;BME280;11096;51.338;12.524;2023-04-26T09:56:12;100236.69;;;13.48;47.87
21863;BME280;11096;51.338;12.524;2023-04-26T09:58:55;100235.63;;;12.60;46.79
21863;BME280;11096;51.338;12.524;2023-04-26T10:01:26;100226.22;;;12.00;44.94
21863;BME280;11096;51.338;12.524;2023-04-26T10:03:54;100235.94;;;11.37;45.30
21863;BME280;11096;51.338;12.524;2023-04-26T10:06:20;100235.78;;;11.51;45.95
21863;BME280;11096;51.338;12.524;2023-04-26T10:08:45;100245.72;;;10.84;47.87
21863;BME280;11096;51.338;12.524;2023-04-26T10:11:11;100233.31;;;10.09;47.62
21863;BME280;11096;51.338;12.524;2023-04-26T10:13:37;100241.31;;;10.33;47.62
21863;BME280;11096;51.338;12.524;2023-04-26T10:16:04;100244.38;;;9.85;46.96
21863;BME280;11096;51.338;12.524;2023-04-26T10:18:31;100252.84;;;9.48;48.96
21863;BME280;11096;51.338;12.524;2023-04-26T10:23:35;100244.22;;;10.92;46.35
21863;BME280;11096;51.338;12.524;2023-04-26T10:26:01;100239.31;;;13.80;42.85
21863;BME280;11096;51.338;12.524;2023-04-26T10:31:05;100236.84;;;11.49;44.51
21863;BME280;11096;51.338;12.524;2023-04-26T10:33:33;100238.00;;;11.08;44.92
21863;BME280;11096;51.338;12.524;2023-04-26T10:36:10;100229.28;;;10.83;45.80
21863;BME280;11096;51.338;12.524;2023-04-26T10:38:41;100235.31;;;10.71;46.14
21863;BME280;11096;51.338;12.524;2023-04-26T10:41:29;100234.16;;;10.37;46.01
21863;BME280;11096;51.338;12.524;2023-04-26T10:43:56;100241.56;;;10.16;46.94
21863;BME280;11096;51.338;12.524;2023-04-26T10:46:36;100246.31;;;10.74;46.80
21863;BME280;11096;51.338;12.524;2023-04-26T10:49:16;100244.16;;;10.81;45.96
21863;BME280;11096;51.338;12.524;2023-04-26T10:52:08;100234.47;;;10.58;45.64
21863;BME280;11096;51.338;12.524;2023-04-26T10:54:54;100238.38;;;11.64;44.96
21863;BME280;11096;51.338;12.524;2023-04-26T10:57:20;100229.25;;;12.18;43.78
21863;BME280;11096;51.338;12.524;2023-04-26T11:02:57;100236.09;;;11.47;43.04
21863;BME280;11096;51.338;12.524;2023-04-26T11:05:50;100223.00;;;11.11;43.28
21863;BME280;11096;51.338;12.524;2023-04-26T11:08:28;100231.31;;;11.53;42.12
21863;BME280;11096;51.338;12.524;2023-04-26T11:13:22;100231.00;;;11.08;42.29
21863;BME280;11096;51.338;12.524;2023-04-26T11:15:52;100225.84;;;10.83;42.80
21863;BME280;11096;51.338;12.524;2023-04-26T11:18:18;100233.03;;;10.79;43.57
21863;BME280;11096;51.338;12.524;2023-04-26T11:20:45;100231.38;;;10.78;45.62
21863;BME280;11096;51.338;12.524;2023-04-26T11:23:11;100219.09;;;10.67;46.43
21863;BME280;11096;51.338;12.524;2023-04-26T11:25:38;100227.50;;;10.96;46.93
21863;BME280;11096;51.338;12.524;2023-04-26T11:28:04;100226.34;;;11.74;45.23
21863;BME280;11096;51.338;12.524;2023-04-26T11:30:32;100227.13;;;11.88;45.32
21863;BME280;11096;51.338;12.524;2023-04-26T11:32:58;100223.78;;;11.37;45.22
21863;BME280;11096;51.338;12.524;2023-04-26T11:35:24;100220.94;;;12.48;44.36
21863;BME280;11096;51.338;12.524;2023-04-26T11:37:50;100218.72;;;13.66;41.96
21863;BME280;11096;51.338;12.524;2023-04-26T11:40:16;100214.47;;;13.53;41.32
21863;BME280;11096;51.338;12.524;2023-04-26T11:42:43;100224.84;;;13.10;41.85
21863;BME280;11096;51.338;12.524;2023-04-26T11:45:09;100220.94;;;12.71;40.75
21863;BME280;11096;51.338;12.524;2023-04-26T11:47:35;100217.50;;;12.59;41.11
21863;BME280;11096;51.338;12.524;2023-04-26T11:50:01;100228.72;;;12.37;42.22
21863;BME280;11096;51.338;12.524;2023-04-26T11:52:28;100226.09;;;11.77;42.79
21863;BME280;11096;51.338;12.524;2023-04-26T11:55:04;100229.22;;;11.22;43.43
21863;BME280;11096;51.338;12.524;2023-04-26T11:57:30;100227.28;;;11.12;43.84
21863;BME280;11096;51.338;12.524;2023-04-26T12:00:12;100233.97;;;10.78;44.90
21863;BME280;11096;51.338;12.524;2023-04-26T12:02:43;100235.69;;;10.26;44.88
21863;BME280;11096;51.338;12.524;2023-04-26T12:05:08;100232.22;;;10.26;44.83
21863;BME280;11096;51.338;12.524;2023-04-26T12:07:35;100239.09;;;10.27;44.21
21863;BME280;11096;51.338;12.524;2023-04-26T12:10:16;100235.28;;;10.96;44.25
21863;BME280;11096;51.338;12.524;2023-04-26T12:12:49;100234.69;;;10.93;43.69
21863;BME280;11096;51.338;12.524;2023-04-26T12:15:21;100230.03;;;12.65;43.10
21863;BME280;11096;51.338;12.524;2023-04-26T12:17:51;100226.19;;;13.27;39.31
21863;BME280;11096;51.338;12.524;2023-04-26T12:20:17;100220.06;;;14.34;39.16
21863;BME280;11096;51.338;12.524;2023-04-26T12:23:07;100216.72;;;16.23;36.07
21863;BME280;11096;51.338;12.524;2023-04-26T12:25:34;100206.53;;;16.10;35.76
21863;BME280;11096;51.338;12.524;2023-04-26T12:28:00;100213.28;;;14.74;36.68
21863;BME280;11096;51.338;12.524;2023-04-26T12:30:27;100222.19;;;13.66;39.02
21863;BME280;11096;51.338;12.524;2023-04-26T12:32:52;100220.09;;;13.49;38.45
21863;BME280;11096;51.338;12.524;2023-04-26T12:35:18;100225.69;;;12.99;39.74
21863;BME280;11096;51.338;12.524;2023-04-26T12:37:43;100228.13;;;12.33;41.28
21863;BME280;11096;51.338;12.524;2023-04-26T12:40:10;100230.78;;;13.01;41.13
21863;BME280;11096;51.338;12.524;2023-04-26T12:42:36;100225.59;;;13.67;40.09
21863;BME280;11096;51.338;12.524;2023-04-26T12:45:01;100223.44;;;13.28;39.88
21863;BME280;11096;51.338;12.524;2023-04-26T12:47:27;100223.22;;;12.98;39.80
21863;BME280;11096;51.338;12.524;2023-04-26T12:49:52;100227.88;;;12.36;40.75
21863;BME280;11096;51.338;12.524;2023-04-26T12:52:18;100225.38;;;12.35;41.05
21863;BME280;11096;51.338;12.524;2023-04-26T12:54:43;100234.97;;;11.51;43.26
21863;BME280;11096;51.338;12.524;2023-04-26T12:57:09;100224.84;;;11.22;43.01
21863;BME280;11096;51.338;12.524;2023-04-26T12:59:35;100228.97;;;11.86;42.74
21863;BME280;11096;51.338;12.524;2023-04-26T13:02:00;100227.31;;;12.44;41.66